createdAt,value
2024-02-19T00:01:07.538Z,12.45
2024-02-19T00:03:35.618Z,12.39
2024-02-19T00:06:04.830Z,12.36
2024-02-19T00:08:32.798Z,12.34
2024-02-19T00:11:02.303Z,12.35
2024-02-19T00:13:30.492Z,12.34
2024-02-19T00:15:59.838Z,12.33
2024-02-19T00:18:27.938Z,12.35
2024-02-19T00:20:55.854Z,12.36
2024-02-19T00:23:23.794Z,12.37
2024-02-19T00:25:52.212Z,12.37
2024-02-19T00:28:20.177Z,12.35
2024-02-19T00:30:48.157Z,12.31
2024-02-19T00:33:18.100Z,12.33
2024-02-19T00:35:46.963Z,12.31
2024-02-19T00:38:14.981Z,12.29
2024-02-19T00:40:43.379Z,12.27
2024-02-19T00:43:12.343Z,12.30
2024-02-19T00:45:40.468Z,12.29
2024-02-19T00:48:08.862Z,12.28
2024-02-19T00:50:38.232Z,12.26
2024-02-19T00:53:06.245Z,12.24
2024-02-19T00:55:34.182Z,12.20
2024-02-19T00:58:02.150Z,12.17
2024-02-19T01:00:30.134Z,12.15
2024-02-19T01:02:59.197Z,12.17
2024-02-19T01:05:27.814Z,12.13
2024-02-19T01:07:57.236Z,12.11
2024-02-19T01:10:25.256Z,12.12
2024-02-19T01:12:53.234Z,12.12
2024-02-19T01:15:21.222Z,12.11
2024-02-19T01:17:49.543Z,12.09
2024-02-19T01:20:17.604Z,12.10
2024-02-19T01:22:45.505Z,12.10
2024-02-19T01:25:15.234Z,12.08
2024-02-19T01:27:43.784Z,12.08
2024-02-19T01:30:13.038Z,12.07
2024-02-19T01:32:41.225Z,12.06
2024-02-19T01:35:10.450Z,12.03
2024-02-19T01:37:38.682Z,12.00
2024-02-19T01:40:10.426Z,12.02
2024-02-19T01:42:45.901Z,12.01
2024-02-19T01:45:27.491Z,11.98
2024-02-19T01:47:56.526Z,11.98
2024-02-19T01:50:26.846Z,11.92
2024-02-19T01:52:57.266Z,11.95
2024-02-19T01:55:27.457Z,11.94
2024-02-19T01:57:59.722Z,11.91
2024-02-19T02:00:29.393Z,11.90
2024-02-19T02:02:57.901Z,11.84
2024-02-19T02:05:26.604Z,11.79
2024-02-19T02:07:55.575Z,11.77
2024-02-19T02:10:23.716Z,11.76
2024-02-19T02:12:52.408Z,11.81
2024-02-19T02:15:21.702Z,11.80
2024-02-19T02:17:49.735Z,11.80
2024-02-19T02:20:18.130Z,11.80
2024-02-19T02:22:46.115Z,11.77
2024-02-19T02:25:14.111Z,11.74
2024-02-19T02:27:43.745Z,11.71
2024-02-19T02:30:12.976Z,11.68
2024-02-19T02:32:40.948Z,11.68
2024-02-19T02:35:08.875Z,11.70
2024-02-19T02:37:36.834Z,11.70
2024-02-19T02:40:05.546Z,11.70
2024-02-19T02:42:33.489Z,11.73
2024-02-19T02:45:02.789Z,11.70
2024-02-19T02:47:30.710Z,11.67
2024-02-19T02:49:58.622Z,11.67
2024-02-19T02:52:27.577Z,11.67
2024-02-19T02:54:55.511Z,11.64
2024-02-19T02:57:23.551Z,11.60
2024-02-19T02:59:51.488Z,11.59
2024-02-19T03:02:20.795Z,11.58
2024-02-19T03:04:48.768Z,11.58
2024-02-19T03:07:17.014Z,11.59
2024-02-19T03:09:45.183Z,11.54
2024-02-19T03:12:13.193Z,11.52
2024-02-19T03:14:41.258Z,11.51
2024-02-19T03:17:09.419Z,11.49
2024-02-19T03:19:38.820Z,11.48
2024-02-19T03:22:07.234Z,11.46
2024-02-19T03:24:35.490Z,11.46
2024-02-19T03:27:05.279Z,11.47
2024-02-19T03:29:33.888Z,11.53
2024-02-19T03:32:01.882Z,11.51
2024-02-19T03:34:29.897Z,11.49
2024-02-19T03:36:59.261Z,11.49
2024-02-19T03:39:27.476Z,11.52
2024-02-19T03:41:56.006Z,11.52
2024-02-19T03:44:24.253Z,11.55
2024-02-19T03:46:52.251Z,11.59
2024-02-19T03:49:20.341Z,11.58
2024-02-19T03:51:48.431Z,11.59
2024-02-19T03:54:17.774Z,11.59
2024-02-19T03:56:45.815Z,11.59
2024-02-19T03:59:13.773Z,11.59
2024-02-19T04:01:41.844Z,11.60
2024-02-19T04:04:10.018Z,11.61
2024-02-19T04:06:38.095Z,11.64
2024-02-19T04:09:06.200Z,11.64
2024-02-19T04:11:35.462Z,11.65
2024-02-19T04:14:03.382Z,11.66
2024-02-19T04:16:31.398Z,11.66
2024-02-19T04:18:59.592Z,11.67
2024-02-19T04:21:27.627Z,11.68
2024-02-19T04:23:56.691Z,11.68
2024-02-19T04:26:24.651Z,11.69
2024-02-19T04:28:54.941Z,11.71
2024-02-19T04:31:22.943Z,11.74
2024-02-19T04:33:50.984Z,11.76
2024-02-19T04:36:19.009Z,11.75
2024-02-19T04:38:47.009Z,11.76
2024-02-19T04:41:14.979Z,11.77
2024-02-19T04:43:42.894Z,11.79
2024-02-19T04:46:13.021Z,11.82
2024-02-19T04:48:41.092Z,11.85
2024-02-19T04:51:09.158Z,11.89
2024-02-19T04:53:37.167Z,11.90
2024-02-19T04:56:05.364Z,11.90
2024-02-19T04:58:33.285Z,11.91
2024-02-19T05:01:02.578Z,11.92
2024-02-19T05:03:32.036Z,11.94
2024-02-19T05:06:00.136Z,11.95
2024-02-19T05:08:28.186Z,11.97
2024-02-19T05:10:56.260Z,12.00
2024-02-19T05:13:24.250Z,12.06
2024-02-19T05:15:53.081Z,12.07
2024-02-19T05:18:21.163Z,12.13
2024-02-19T05:20:50.501Z,12.28
2024-02-19T05:23:18.890Z,12.53
2024-02-19T05:25:46.867Z,12.77
2024-02-19T05:28:14.844Z,12.92
2024-02-19T05:30:42.941Z,13.06
2024-02-19T05:33:10.941Z,13.21
2024-02-19T05:35:38.934Z,13.35
2024-02-19T05:38:08.229Z,13.42
2024-02-19T05:40:36.188Z,13.49
2024-02-19T05:43:04.185Z,13.42
2024-02-19T05:45:32.429Z,13.42
2024-02-19T05:48:00.704Z,13.44
2024-02-19T05:50:31.440Z,13.41
2024-02-19T05:52:59.566Z,13.21
2024-02-19T05:55:29.098Z,13.03
2024-02-19T05:57:57.510Z,12.87
2024-02-19T06:00:25.445Z,12.76
2024-02-19T06:02:53.589Z,12.66
2024-02-19T06:05:21.735Z,12.57
2024-02-19T06:07:49.845Z,12.53
2024-02-19T06:10:18.273Z,12.48
2024-02-19T06:12:47.669Z,12.43
2024-02-19T06:15:16.076Z,12.38
2024-02-19T06:17:44.151Z,12.34
2024-02-19T06:20:13.312Z,12.29
2024-02-19T06:22:41.776Z,12.24
2024-02-19T06:25:11.300Z,12.24
2024-02-19T06:27:39.694Z,12.24
2024-02-19T06:30:10.155Z,12.22
2024-02-19T06:32:38.088Z,12.22
2024-02-19T06:35:06.935Z,12.20
2024-02-19T06:37:34.995Z,12.23
2024-02-19T06:40:03.127Z,12.23
2024-02-19T06:42:31.469Z,12.23
2024-02-19T06:44:59.406Z,12.23
2024-02-19T06:47:28.697Z,12.24
2024-02-19T06:49:56.914Z,12.23
2024-02-19T06:52:25.219Z,12.26
2024-02-19T06:54:53.305Z,12.30
2024-02-19T06:57:21.418Z,12.34
2024-02-19T06:59:49.672Z,12.37
2024-02-19T07:02:17.758Z,12.43
2024-02-19T07:04:47.550Z,12.48
2024-02-19T07:07:15.750Z,12.50
2024-02-19T07:09:43.748Z,12.58
2024-02-19T07:12:12.101Z,12.71
2024-02-19T07:14:40.208Z,12.83
2024-02-19T07:17:08.138Z,12.93
2024-02-19T07:19:36.202Z,12.99
2024-02-19T07:22:06.257Z,13.01
2024-02-19T07:24:34.400Z,13.00
2024-02-19T07:27:02.446Z,13.01
2024-02-19T07:29:30.461Z,13.01
2024-02-19T07:31:58.580Z,12.99
2024-02-19T07:34:26.641Z,12.99
2024-02-19T07:36:55.640Z,13.03
2024-02-19T07:39:24.941Z,13.07
2024-02-19T07:41:52.936Z,13.09
2024-02-19T07:44:20.878Z,13.07
2024-02-19T07:46:49.491Z,13.06
2024-02-19T07:49:17.652Z,12.99
2024-02-19T07:51:45.746Z,12.97
2024-02-19T07:54:13.744Z,12.94
2024-02-19T07:56:42.981Z,12.91
2024-02-19T07:59:10.935Z,12.88
2024-02-19T08:01:39.149Z,12.84
2024-02-19T08:04:08.333Z,12.94
2024-02-19T08:06:36.449Z,13.08
2024-02-19T08:09:06.016Z,13.23
2024-02-19T08:11:34.492Z,13.32
2024-02-19T08:14:04.022Z,13.43
2024-02-19T08:16:32.071Z,13.63
2024-02-19T08:19:00.593Z,13.86
2024-02-19T08:21:28.801Z,14.09
2024-02-19T08:23:56.714Z,14.19
2024-02-19T08:26:24.697Z,14.30
2024-02-19T08:28:52.694Z,14.45
2024-02-19T08:31:25.031Z,14.63
2024-02-19T08:33:53.133Z,14.68
2024-02-19T08:36:21.171Z,14.65
2024-02-19T08:38:51.097Z,14.65
2024-02-19T08:41:19.165Z,14.61
2024-02-19T08:43:47.103Z,14.54
2024-02-19T08:46:15.732Z,14.57
2024-02-19T08:48:46.250Z,14.66
2024-02-19T08:51:14.244Z,14.71
2024-02-19T08:53:42.174Z,14.84
2024-02-19T08:56:10.113Z,15.11
2024-02-19T08:58:38.049Z,15.04
2024-02-19T09:01:11.270Z,15.01
2024-02-19T09:03:39.449Z,14.97
2024-02-19T09:06:09.819Z,14.82
2024-02-19T09:08:37.907Z,14.66
2024-02-19T09:11:05.848Z,14.53
2024-02-19T09:13:35.557Z,14.42
2024-02-19T09:16:03.722Z,14.36
2024-02-19T09:18:32.094Z,14.34
2024-02-19T09:21:00.051Z,14.39
2024-02-19T09:23:31.271Z,14.48
2024-02-19T09:25:59.814Z,14.69
2024-02-19T09:28:27.813Z,15.61
2024-02-19T09:30:55.864Z,16.04
2024-02-19T09:33:23.988Z,16.85
2024-02-19T09:35:52.096Z,18.00
2024-02-19T09:38:20.166Z,19.50
2024-02-19T09:40:51.031Z,20.20
2024-02-19T09:43:21.434Z,20.31
2024-02-19T09:45:51.064Z,20.95
2024-02-19T09:48:20.995Z,20.94
2024-02-19T09:50:50.223Z,20.26
2024-02-19T09:53:22.401Z,19.78
2024-02-19T09:55:52.312Z,19.59
2024-02-19T09:58:20.718Z,19.28
2024-02-19T10:00:49.619Z,19.06
2024-02-19T10:03:20.934Z,18.55
2024-02-19T10:05:50.909Z,18.26
2024-02-19T10:08:19.230Z,18.10
2024-02-19T10:10:48.729Z,18.06
2024-02-19T10:13:19.298Z,19.30
2024-02-19T10:15:47.263Z,21.11
2024-02-19T10:18:17.020Z,22.06
2024-02-19T10:20:47.571Z,22.00
2024-02-19T10:23:16.324Z,21.45
2024-02-19T10:25:44.233Z,20.95
2024-02-19T10:28:12.950Z,21.58
2024-02-19T10:30:42.619Z,22.25
2024-02-19T10:33:10.655Z,21.67
2024-02-19T10:35:38.745Z,20.69
2024-02-19T10:38:06.905Z,19.96
2024-02-19T10:40:35.313Z,19.79
2024-02-19T10:43:05.327Z,19.29
2024-02-19T10:45:35.350Z,18.63
2024-02-19T10:48:05.515Z,18.19
2024-02-19T10:50:34.535Z,17.88
2024-02-19T10:53:02.511Z,17.61
2024-02-19T10:55:41.025Z,17.05
2024-02-19T10:58:20.263Z,16.45
2024-02-19T11:00:48.463Z,16.09
2024-02-19T11:03:17.819Z,15.91
2024-02-19T11:05:47.921Z,15.63
2024-02-19T11:08:21.231Z,15.41
2024-02-19T11:10:50.962Z,15.23
2024-02-19T11:13:22.046Z,15.05
2024-02-19T11:15:50.440Z,14.93
2024-02-19T11:18:21.243Z,14.87
2024-02-19T11:20:51.107Z,14.83
2024-02-19T11:23:20.343Z,14.72
2024-02-19T11:25:48.733Z,14.60
2024-02-19T11:28:17.059Z,14.56
2024-02-19T11:30:47.904Z,14.52
2024-02-19T11:33:15.945Z,14.41
2024-02-19T11:35:45.885Z,14.32
2024-02-19T11:38:13.970Z,14.28
2024-02-19T11:40:42.004Z,14.25
2024-02-19T11:43:12.586Z,14.27
2024-02-19T11:45:40.986Z,14.28
2024-02-19T11:48:09.598Z,14.27
2024-02-19T11:50:37.659Z,14.35
2024-02-19T11:53:08.072Z,14.41
2024-02-19T11:55:36.512Z,14.38
2024-02-19T11:58:06.945Z,14.38
2024-02-19T12:00:36.514Z,14.50
2024-02-19T12:03:05.520Z,14.68
2024-02-19T12:05:33.545Z,14.68
2024-02-19T12:08:02.424Z,14.70
2024-02-19T12:10:33.592Z,14.89
2024-02-19T12:13:01.737Z,15.00
2024-02-19T12:15:29.739Z,15.17
2024-02-19T12:17:58.115Z,15.29
2024-02-19T12:20:26.240Z,15.35
2024-02-19T12:22:55.050Z,15.47
2024-02-19T12:25:25.298Z,15.46
2024-02-19T12:27:54.713Z,15.40
2024-02-19T12:30:23.834Z,15.46
2024-02-19T12:32:51.877Z,15.55
2024-02-19T12:35:20.946Z,15.64
2024-02-19T12:37:49.314Z,15.61
2024-02-19T12:40:17.462Z,15.64
2024-02-19T12:42:46.344Z,15.69
2024-02-19T12:45:16.014Z,15.58
2024-02-19T12:47:44.013Z,15.43
2024-02-19T12:50:13.735Z,15.42
2024-02-19T12:52:42.126Z,15.41
2024-02-19T12:55:10.536Z,15.46
2024-02-19T12:57:39.864Z,15.47
2024-02-19T13:00:09.885Z,15.47
2024-02-19T13:02:39.276Z,15.46
2024-02-19T13:05:08.601Z,15.50
2024-02-19T13:07:36.874Z,15.47
2024-02-19T13:10:05.269Z,15.39
2024-02-19T13:12:33.347Z,15.25
2024-02-19T13:15:01.823Z,14.99
2024-02-19T13:17:39.315Z,14.84
2024-02-19T13:20:14.343Z,14.68
2024-02-19T13:22:42.646Z,14.60
2024-02-19T13:25:11.137Z,14.61
2024-02-19T13:27:39.750Z,14.55
2024-02-19T13:30:10.812Z,14.58
2024-02-19T13:32:39.849Z,14.56
2024-02-19T13:35:12.350Z,14.66
2024-02-19T13:37:42.558Z,14.66
2024-02-19T13:40:12.231Z,14.67
2024-02-19T13:42:41.773Z,14.64
2024-02-19T13:45:11.262Z,14.67
2024-02-19T13:47:40.064Z,14.72
2024-02-19T13:50:09.375Z,14.81
2024-02-19T13:52:37.570Z,14.93
2024-02-19T13:55:08.083Z,14.95
2024-02-19T13:57:36.763Z,15.00
2024-02-19T14:00:06.420Z,14.98
2024-02-19T14:02:34.624Z,14.98
2024-02-19T14:05:03.064Z,14.98
2024-02-19T14:07:31.565Z,14.94
2024-02-19T14:09:59.656Z,14.90
2024-02-19T14:12:29.376Z,14.92
2024-02-19T14:14:57.652Z,14.89
2024-02-19T14:17:25.691Z,14.85
2024-02-19T14:19:54.418Z,14.85
2024-02-19T14:22:22.926Z,14.80
2024-02-19T14:24:52.277Z,14.64
2024-02-19T14:27:20.287Z,14.56
2024-02-19T14:29:49.625Z,14.53
2024-02-19T14:32:17.550Z,14.51
2024-02-19T14:34:45.652Z,14.45
2024-02-19T14:37:14.178Z,14.40
2024-02-19T14:39:42.360Z,14.29
2024-02-19T14:42:10.649Z,14.23
2024-02-19T14:44:38.666Z,14.12
2024-02-19T14:47:08.368Z,14.05
2024-02-19T14:49:36.625Z,13.99
2024-02-19T14:52:05.044Z,13.98
2024-02-19T14:54:33.405Z,13.93
2024-02-19T14:57:01.607Z,13.91
2024-02-19T14:59:29.827Z,13.85
2024-02-19T15:01:58.325Z,13.82
2024-02-19T15:04:27.857Z,13.74
2024-02-19T15:06:56.814Z,13.71
2024-02-19T15:09:25.070Z,13.71
2024-02-19T15:11:53.202Z,13.69
2024-02-19T15:14:21.662Z,13.66
2024-02-19T15:16:49.806Z,13.64
2024-02-19T15:19:18.193Z,13.59
2024-02-19T15:21:47.807Z,13.59
2024-02-19T15:24:16.033Z,13.62
2024-02-19T15:26:44.130Z,13.61
2024-02-19T15:29:13.163Z,13.60
2024-02-19T15:31:41.384Z,13.57
2024-02-19T15:34:09.737Z,13.50
2024-02-19T15:36:37.809Z,13.50
2024-02-19T15:39:07.473Z,13.47
2024-02-19T15:41:35.520Z,13.45
2024-02-19T15:44:05.351Z,13.43
2024-02-19T15:46:33.993Z,13.40
2024-02-19T15:49:02.316Z,13.38
2024-02-19T15:51:31.052Z,13.37
2024-02-19T15:53:59.230Z,13.30
2024-02-19T15:56:30.256Z,13.30
2024-02-19T15:58:58.263Z,13.26
2024-02-19T16:01:26.279Z,13.21
2024-02-19T16:03:54.537Z,13.25
2024-02-19T16:06:28.719Z,13.24
2024-02-19T16:08:57.690Z,13.19
2024-02-19T16:11:25.611Z,13.18
2024-02-19T16:13:55.286Z,13.14
2024-02-19T16:16:23.486Z,13.10
2024-02-19T16:18:51.558Z,13.06
2024-02-19T16:21:19.542Z,13.01
2024-02-19T16:23:47.554Z,13.08
2024-02-19T16:26:15.725Z,13.18
2024-02-19T16:28:43.797Z,13.28
2024-02-19T16:31:13.310Z,13.35
2024-02-19T16:33:43.392Z,13.38
2024-02-19T16:36:12.047Z,13.31
2024-02-19T16:38:42.279Z,13.20
2024-02-19T16:41:10.394Z,13.09
2024-02-19T16:43:38.521Z,13.03
2024-02-19T16:46:06.612Z,12.97
2024-02-19T16:48:39.887Z,12.90
2024-02-19T16:51:08.601Z,12.83
2024-02-19T16:53:37.170Z,12.79
2024-02-19T16:56:07.260Z,12.75
2024-02-19T16:58:36.444Z,12.71
2024-02-19T17:01:06.685Z,12.70
2024-02-19T17:03:36.191Z,12.65
2024-02-19T17:06:04.568Z,12.60
2024-02-19T17:08:32.679Z,12.61
2024-02-19T17:11:00.928Z,12.57
2024-02-19T17:13:29.109Z,12.58
2024-02-19T17:15:57.507Z,12.64
2024-02-19T17:18:25.799Z,12.66
2024-02-19T17:20:55.228Z,12.62
2024-02-19T17:23:24.491Z,12.63
2024-02-19T17:25:52.565Z,12.60
2024-02-19T17:28:22.949Z,12.57
2024-02-19T17:30:53.864Z,12.56
2024-02-19T17:33:22.941Z,12.61
2024-02-19T17:35:52.306Z,12.71
2024-02-19T17:38:22.373Z,12.79
2024-02-19T17:40:50.394Z,12.79
2024-02-19T17:43:18.634Z,12.75
2024-02-19T17:45:47.489Z,12.72
2024-02-19T17:48:15.657Z,12.64
2024-02-19T17:50:43.728Z,12.62
2024-02-19T17:53:12.483Z,12.63
2024-02-19T17:55:41.853Z,12.65
2024-02-19T17:58:09.929Z,12.67
2024-02-19T18:00:41.946Z,12.68
2024-02-19T18:03:10.325Z,12.65
2024-02-19T18:05:38.590Z,12.64
2024-02-19T18:08:06.942Z,12.65
2024-02-19T18:10:34.902Z,12.63
2024-02-19T18:13:04.942Z,12.62
2024-02-19T18:15:32.906Z,12.60
2024-02-19T18:18:04.084Z,12.58
2024-02-19T18:20:33.826Z,12.52
2024-02-19T18:23:05.986Z,12.48
2024-02-19T18:25:34.051Z,12.44
2024-02-19T18:28:02.185Z,12.41
2024-02-19T18:30:31.659Z,12.38
2024-02-19T18:33:02.166Z,12.39
2024-02-19T18:35:30.473Z,12.37
2024-02-19T18:38:01.190Z,12.39
2024-02-19T18:40:30.347Z,12.40
2024-02-19T18:42:58.427Z,12.38
2024-02-19T18:45:27.620Z,12.37
2024-02-19T18:47:57.509Z,12.38
2024-02-19T18:50:25.700Z,12.38
2024-02-19T18:52:53.659Z,12.37
2024-02-19T18:55:24.020Z,12.39
2024-02-19T18:57:52.162Z,12.41
2024-02-19T19:00:20.340Z,12.41
2024-02-19T19:02:48.340Z,12.43
2024-02-19T19:05:17.797Z,12.45
2024-02-19T19:07:45.858Z,12.46
2024-02-19T19:10:13.944Z,12.45
2024-02-19T19:12:42.169Z,12.43
2024-02-19T19:15:11.478Z,12.43
2024-02-19T19:17:39.603Z,12.43
2024-02-19T19:20:10.257Z,12.44
2024-02-19T19:22:40.102Z,12.43
2024-02-19T19:25:09.581Z,12.44
2024-02-19T19:27:37.680Z,12.43
2024-02-19T19:30:06.903Z,12.44
2024-02-19T19:32:36.555Z,12.45
2024-02-19T19:35:05.622Z,12.43
2024-02-19T19:37:33.929Z,12.42
2024-02-19T19:40:07.077Z,12.42
2024-02-19T19:42:36.854Z,12.43
2024-02-19T19:45:06.449Z,12.41
2024-02-19T19:47:35.681Z,12.40
2024-02-19T19:50:04.139Z,12.41
2024-02-19T19:52:35.468Z,12.43
2024-02-19T19:55:05.990Z,12.43
2024-02-19T19:57:34.106Z,12.42
2024-02-19T20:00:02.406Z,12.43
2024-02-19T20:02:36.723Z,12.41
2024-02-19T20:05:05.361Z,12.37
2024-02-19T20:07:33.466Z,12.34
2024-02-19T20:10:04.129Z,12.34
2024-02-19T20:12:33.527Z,12.35
2024-02-19T20:15:03.286Z,12.35
2024-02-19T20:17:33.672Z,12.34
2024-02-19T20:20:02.214Z,12.36
2024-02-19T20:22:31.652Z,12.37
2024-02-19T20:24:59.859Z,12.39
2024-02-19T20:27:28.046Z,12.41
2024-02-19T20:29:57.630Z,12.43
2024-02-19T20:32:25.687Z,12.42
2024-02-19T20:34:53.813Z,12.41
2024-02-19T20:37:21.949Z,12.40
2024-02-19T20:39:50.610Z,12.41
2024-02-19T20:42:18.782Z,12.39
2024-02-19T20:44:47.805Z,12.38
2024-02-19T20:47:18.790Z,12.35
2024-02-19T20:49:48.148Z,12.36
2024-02-19T20:52:16.420Z,12.39
2024-02-19T20:54:44.462Z,12.40
2024-02-19T20:57:13.067Z,12.38
2024-02-19T20:59:41.524Z,12.35
2024-02-19T21:02:09.565Z,12.34
2024-02-19T21:04:39.050Z,12.34
2024-02-19T21:07:07.408Z,12.34
2024-02-19T21:09:37.993Z,12.36
2024-02-19T21:12:06.764Z,12.35
2024-02-19T21:14:35.750Z,12.32
2024-02-19T21:17:04.372Z,12.32
2024-02-19T21:19:33.584Z,12.31
2024-02-19T21:22:03.326Z,12.31
2024-02-19T21:24:31.366Z,12.32
2024-02-19T21:27:00.548Z,12.28
2024-02-19T21:29:29.845Z,12.25
2024-02-19T21:31:58.095Z,12.36
2024-02-19T21:34:26.205Z,12.53
2024-02-19T21:36:57.673Z,12.57
2024-02-19T21:39:27.340Z,12.51
2024-02-19T21:41:55.386Z,12.46
2024-02-19T21:44:23.454Z,12.40
2024-02-19T21:46:51.460Z,12.39
2024-02-19T21:49:21.402Z,12.38
2024-02-19T21:51:49.875Z,12.36
2024-02-19T21:54:17.970Z,12.32
2024-02-19T21:56:47.588Z,12.28
2024-02-19T21:59:15.839Z,12.28
2024-02-19T22:01:43.991Z,12.29
2024-02-19T22:04:12.009Z,12.27
2024-02-19T22:06:41.502Z,12.25
2024-02-19T22:09:09.542Z,12.23
2024-02-19T22:11:38.207Z,12.19
2024-02-19T22:14:08.150Z,12.18
2024-02-19T22:16:36.290Z,12.18
2024-02-19T22:19:04.527Z,12.16
2024-02-19T22:21:32.595Z,12.16
2024-02-19T22:24:01.183Z,12.11
2024-02-19T22:26:29.358Z,12.11
2024-02-19T22:28:57.388Z,12.10
2024-02-19T22:31:26.868Z,12.08
2024-02-19T22:33:55.148Z,12.06
2024-02-19T22:36:23.382Z,12.07
2024-02-19T22:38:51.364Z,12.06
2024-02-19T22:41:19.749Z,12.05
2024-02-19T22:43:47.847Z,12.03
2024-02-19T22:46:15.828Z,12.02
2024-02-19T22:48:45.228Z,12.03
2024-02-19T22:51:13.142Z,12.04
2024-02-19T22:53:41.123Z,12.02
2024-02-19T22:56:09.050Z,12.02
2024-02-19T22:58:37.871Z,12.03
2024-02-19T23:01:06.264Z,12.03
2024-02-19T23:03:34.393Z,12.03
2024-02-19T23:06:03.786Z,12.00
2024-02-19T23:08:31.838Z,11.98
2024-02-19T23:10:59.896Z,11.95
2024-02-19T23:13:27.945Z,11.92
2024-02-19T23:15:56.024Z,11.93
2024-02-19T23:18:24.121Z,11.95
2024-02-19T23:20:52.132Z,11.94
2024-02-19T23:23:21.605Z,11.95
2024-02-19T23:25:53.858Z,11.94
2024-02-19T23:28:22.909Z,12.02
2024-02-19T23:30:53.326Z,12.06
2024-02-19T23:33:21.426Z,12.08
2024-02-19T23:35:49.481Z,12.09
2024-02-19T23:38:23.416Z,12.08
2024-02-19T23:40:52.036Z,12.03
2024-02-19T23:43:20.363Z,12.01
2024-02-19T23:45:49.352Z,12.02
2024-02-19T23:48:17.815Z,12.04
2024-02-19T23:50:45.844Z,12.08
2024-02-19T23:53:15.611Z,12.09
2024-02-19T23:55:45.080Z,12.08
2024-02-19T23:58:13.480Z,12.07
